sensor_id;sensor_type;location;lat;lon;timestamp;P1;durP1;ratioP1;P2;durP2;ratioP2
54795;SDS011;40693;43.884;20.340;2023-08-01T00:01:30;19.02;;;12.68;;
54795;SDS011;40693;43.884;20.340;2023-08-01T00:03:57;81.10;;;56.88;;
54795;SDS011;40693;43.884;20.340;2023-08-01T00:06:22;46.10;;;34.55;;
54795;SDS011;40693;43.884;20.340;2023-08-01T00:08:50;23.20;;;16.63;;
54795;SDS011;40693;43.884;20.340;2023-08-01T00:11:16;13.88;;;9.15;;
54795;SDS011;40693;43.884;20.340;2023-08-01T00:13:42;8.80;;;5.43;;
54795;SDS011;40693;43.884;20.340;2023-08-01T00:16:08;9.95;;;4.38;;
54795;SDS011;40693;43.884;20.340;2023-08-01T00:18:35;4.60;;;3.33;;
54795;SDS011;40693;43.884;20.340;2023-08-01T00:21:01;3.95;;;2.85;;
54795;SDS011;40693;43.884;20.340;2023-08-01T00:23:27;4.97;;;3.00;;
54795;SDS011;40693;43.884;20.340;2023-08-01T00:25:52;6.32;;;3.30;;
54795;SDS011;40693;43.884;20.340;2023-08-01T00:28:18;6.88;;;3.92;;
54795;SDS011;40693;43.884;20.340;2023-08-01T00:30:44;6.68;;;2.97;;
54795;SDS011;40693;43.884;20.340;2023-08-01T00:33:10;5.32;;;3.13;;
54795;SDS011;40693;43.884;20.340;2023-08-01T00:35:35;5.82;;;3.08;;
54795;SDS011;40693;43.884;20.340;2023-08-01T00:38:01;4.93;;;3.45;;
54795;SDS011;40693;43.884;20.340;2023-08-01T00:40:33;6.90;;;2.80;;
54795;SDS011;40693;43.884;20.340;2023-08-01T00:43:00;4.10;;;2.85;;
54795;SDS011;40693;43.884;20.340;2023-08-01T00:45:26;4.68;;;3.35;;
54795;SDS011;40693;43.884;20.340;2023-08-01T00:47:52;5.38;;;3.35;;
54795;SDS011;40693;43.884;20.340;2023-08-01T00:50:19;6.63;;;3.63;;
54795;SDS011;40693;43.884;20.340;2023-08-01T00:52:46;6.43;;;2.70;;
54795;SDS011;40693;43.884;20.340;2023-08-01T00:55:12;8.18;;;3.90;;
54795;SDS011;40693;43.884;20.340;2023-08-01T00:57:40;4.65;;;2.90;;
54795;SDS011;40693;43.884;20.340;2023-08-01T01:00:05;5.20;;;3.47;;
54795;SDS011;40693;43.884;20.340;2023-08-01T01:02:32;5.60;;;3.17;;
54795;SDS011;40693;43.884;20.340;2023-08-01T01:04:58;8.25;;;3.10;;
54795;SDS011;40693;43.884;20.340;2023-08-01T01:07:23;9.38;;;4.03;;
54795;SDS011;40693;43.884;20.340;2023-08-01T01:09:51;8.50;;;3.35;;
54795;SDS011;40693;43.884;20.340;2023-08-01T01:12:17;5.40;;;2.90;;
54795;SDS011;40693;43.884;20.340;2023-08-01T01:14:42;5.63;;;3.13;;
54795;SDS011;40693;43.884;20.340;2023-08-01T01:17:08;3.95;;;2.97;;
54795;SDS011;40693;43.884;20.340;2023-08-01T01:19:34;6.00;;;3.45;;
54795;SDS011;40693;43.884;20.340;2023-08-01T01:22:00;4.80;;;3.03;;
54795;SDS011;40693;43.884;20.340;2023-08-01T01:24:29;4.38;;;3.53;;
54795;SDS011;40693;43.884;20.340;2023-08-01T01:26:55;8.23;;;3.25;;
54795;SDS011;40693;43.884;20.340;2023-08-01T01:29:25;5.32;;;3.55;;
54795;SDS011;40693;43.884;20.340;2023-08-01T01:31:51;7.80;;;3.20;;
54795;SDS011;40693;43.884;20.340;2023-08-01T01:34:18;7.05;;;3.85;;
54795;SDS011;40693;43.884;20.340;2023-08-01T01:36:44;8.48;;;4.13;;
54795;SDS011;40693;43.884;20.340;2023-08-01T01:39:10;11.27;;;3.38;;
54795;SDS011;40693;43.884;20.340;2023-08-01T01:41:35;4.90;;;3.47;;
54795;SDS011;40693;43.884;20.340;2023-08-01T01:44:01;5.15;;;3.85;;
54795;SDS011;40693;43.884;20.340;2023-08-01T01:46:27;9.65;;;4.15;;
54795;SDS011;40693;43.884;20.340;2023-08-01T01:48:52;8.30;;;3.80;;
54795;SDS011;40693;43.884;20.340;2023-08-01T01:51:19;7.90;;;3.50;;
54795;SDS011;40693;43.884;20.340;2023-08-01T01:53:46;5.25;;;3.65;;
54795;SDS011;40693;43.884;20.340;2023-08-01T01:56:11;4.47;;;3.30;;
54795;SDS011;40693;43.884;20.340;2023-08-01T01:58:37;7.25;;;3.30;;
54795;SDS011;40693;43.884;20.340;2023-08-01T02:01:03;3.65;;;3.08;;
54795;SDS011;40693;43.884;20.340;2023-08-01T02:03:29;7.95;;;3.50;;
54795;SDS011;40693;43.884;20.340;2023-08-01T02:05:54;5.45;;;3.30;;
54795;SDS011;40693;43.884;20.340;2023-08-01T02:08:20;3.67;;;3.13;;
54795;SDS011;40693;43.884;20.340;2023-08-01T02:10:46;9.20;;;3.42;;
54795;SDS011;40693;43.884;20.340;2023-08-01T02:13:13;5.13;;;3.05;;
54795;SDS011;40693;43.884;20.340;2023-08-01T02:15:39;5.25;;;2.97;;
54795;SDS011;40693;43.884;20.340;2023-08-01T02:18:04;5.88;;;3.28;;
54795;SDS011;40693;43.884;20.340;2023-08-01T02:20:30;6.07;;;3.28;;
54795;SDS011;40693;43.884;20.340;2023-08-01T02:22:56;6.03;;;3.30;;
54795;SDS011;40693;43.884;20.340;2023-08-01T02:25:22;3.97;;;3.20;;
54795;SDS011;40693;43.884;20.340;2023-08-01T02:27:48;6.05;;;3.40;;
54795;SDS011;40693;43.884;20.340;2023-08-01T02:30:13;6.10;;;3.17;;
54795;SDS011;40693;43.884;20.340;2023-08-01T02:32:39;7.28;;;3.20;;
54795;SDS011;40693;43.884;20.340;2023-08-01T02:35:05;5.18;;;3.17;;
54795;SDS011;40693;43.884;20.340;2023-08-01T02:37:30;7.50;;;3.47;;
54795;SDS011;40693;43.884;20.340;2023-08-01T02:39:56;7.78;;;3.22;;
54795;SDS011;40693;43.884;20.340;2023-08-01T02:42:22;6.00;;;3.08;;
54795;SDS011;40693;43.884;20.340;2023-08-01T02:44:48;6.10;;;3.90;;
54795;SDS011;40693;43.884;20.340;2023-08-01T02:47:13;7.50;;;3.83;;
54795;SDS011;40693;43.884;20.340;2023-08-01T02:49:39;5.65;;;3.33;;
54795;SDS011;40693;43.884;20.340;2023-08-01T02:52:05;5.25;;;3.42;;
54795;SDS011;40693;43.884;20.340;2023-08-01T02:54:30;7.18;;;4.97;;
54795;SDS011;40693;43.884;20.340;2023-08-01T02:56:56;5.70;;;4.38;;
54795;SDS011;40693;43.884;20.340;2023-08-01T02:59:22;6.43;;;3.28;;
54795;SDS011;40693;43.884;20.340;2023-08-01T03:01:49;6.43;;;3.00;;
54795;SDS011;40693;43.884;20.340;2023-08-01T03:04:14;4.93;;;3.47;;
54795;SDS011;40693;43.884;20.340;2023-08-01T03:06:40;4.55;;;2.83;;
54795;SDS011;40693;43.884;20.340;2023-08-01T03:09:06;7.93;;;3.05;;
54795;SDS011;40693;43.884;20.340;2023-08-01T03:11:37;7.28;;;3.38;;
54795;SDS011;40693;43.884;20.340;2023-08-01T03:14:03;3.92;;;3.17;;
54795;SDS011;40693;43.884;20.340;2023-08-01T03:16:31;5.38;;;3.08;;
54795;SDS011;40693;43.884;20.340;2023-08-01T03:18:57;4.60;;;3.30;;
54795;SDS011;40693;43.884;20.340;2023-08-01T03:21:25;5.07;;;3.35;;
54795;SDS011;40693;43.884;20.340;2023-08-01T03:23:51;5.95;;;3.83;;
54795;SDS011;40693;43.884;20.340;2023-08-01T03:26:17;6.57;;;4.38;;
54795;SDS011;40693;43.884;20.340;2023-08-01T03:28:43;6.25;;;3.55;;
54795;SDS011;40693;43.884;20.340;2023-08-01T03:31:09;7.40;;;3.58;;
54795;SDS011;40693;43.884;20.340;2023-08-01T03:33:34;5.25;;;3.40;;
54795;SDS011;40693;43.884;20.340;2023-08-01T03:36:00;6.97;;;3.33;;
54795;SDS011;40693;43.884;20.340;2023-08-01T03:38:26;4.18;;;2.65;;
54795;SDS011;40693;43.884;20.340;2023-08-01T03:40:52;4.80;;;3.20;;
54795;SDS011;40693;43.884;20.340;2023-08-01T03:43:17;7.40;;;3.00;;
54795;SDS011;40693;43.884;20.340;2023-08-01T03:45:48;5.18;;;3.10;;
54795;SDS011;40693;43.884;20.340;2023-08-01T03:48:14;6.55;;;3.30;;
54795;SDS011;40693;43.884;20.340;2023-08-01T03:50:40;5.85;;;3.75;;
54795;SDS011;40693;43.884;20.340;2023-08-01T03:53:05;6.32;;;3.20;;
54795;SDS011;40693;43.884;20.340;2023-08-01T03:55:32;10.60;;;4.68;;
54795;SDS011;40693;43.884;20.340;2023-08-01T03:57:58;6.03;;;3.13;;
54795;SDS011;40693;43.884;20.340;2023-08-01T04:00:24;6.68;;;3.55;;
54795;SDS011;40693;43.884;20.340;2023-08-01T04:02:50;7.38;;;3.20;;
54795;SDS011;40693;43.884;20.340;2023-08-01T04:05:15;5.18;;;2.53;;
54795;SDS011;40693;43.884;20.340;2023-08-01T04:07:41;5.78;;;3.95;;
54795;SDS011;40693;43.884;20.340;2023-08-01T04:10:07;5.45;;;3.35;;
54795;SDS011;40693;43.884;20.340;2023-08-01T04:12:33;6.85;;;3.38;;
54795;SDS011;40693;43.884;20.340;2023-08-01T04:14:59;8.93;;;4.10;;
54795;SDS011;40693;43.884;20.340;2023-08-01T04:17:25;4.60;;;3.35;;
54795;SDS011;40693;43.884;20.340;2023-08-01T04:19:51;6.18;;;3.70;;
54795;SDS011;40693;43.884;20.340;2023-08-01T04:22:18;10.07;;;4.50;;
54795;SDS011;40693;43.884;20.340;2023-08-01T04:24:43;6.10;;;3.20;;
54795;SDS011;40693;43.884;20.340;2023-08-01T04:27:09;7.80;;;3.17;;
54795;SDS011;40693;43.884;20.340;2023-08-01T04:29:35;6.50;;;3.63;;
54795;SDS011;40693;43.884;20.340;2023-08-01T04:32:01;5.53;;;3.47;;
54795;SDS011;40693;43.884;20.340;2023-08-01T04:34:26;7.53;;;3.15;;
54795;SDS011;40693;43.884;20.340;2023-08-01T04:36:52;4.70;;;3.40;;
54795;SDS011;40693;43.884;20.340;2023-08-01T04:39:18;6.68;;;3.70;;
54795;SDS011;40693;43.884;20.340;2023-08-01T04:41:43;5.85;;;3.83;;
54795;SDS011;40693;43.884;20.340;2023-08-01T04:44:09;8.05;;;3.40;;
54795;SDS011;40693;43.884;20.340;2023-08-01T04:46:35;7.32;;;3.55;;
54795;SDS011;40693;43.884;20.340;2023-08-01T04:49:00;10.25;;;3.60;;
54795;SDS011;40693;43.884;20.340;2023-08-01T04:51:26;6.38;;;3.42;;
54795;SDS011;40693;43.884;20.340;2023-08-01T04:53:52;10.70;;;6.47;;
54795;SDS011;40693;43.884;20.340;2023-08-01T04:56:18;4.40;;;3.38;;
54795;SDS011;40693;43.884;20.340;2023-08-01T04:58:43;7.00;;;3.75;;
54795;SDS011;40693;43.884;20.340;2023-08-01T05:01:09;9.52;;;3.50;;
54795;SDS011;40693;43.884;20.340;2023-08-01T05:03:35;6.90;;;3.70;;
54795;SDS011;40693;43.884;20.340;2023-08-01T05:06:00;5.32;;;3.70;;
54795;SDS011;40693;43.884;20.340;2023-08-01T05:08:26;4.78;;;3.03;;
54795;SDS011;40693;43.884;20.340;2023-08-01T05:10:52;7.22;;;3.72;;
54795;SDS011;40693;43.884;20.340;2023-08-01T05:13:18;9.45;;;4.30;;
54795;SDS011;40693;43.884;20.340;2023-08-01T05:15:44;5.88;;;3.33;;
54795;SDS011;40693;43.884;20.340;2023-08-01T05:18:12;7.45;;;3.78;;
54795;SDS011;40693;43.884;20.340;2023-08-01T05:20:41;7.00;;;4.57;;
54795;SDS011;40693;43.884;20.340;2023-08-01T05:23:07;6.30;;;4.20;;
54795;SDS011;40693;43.884;20.340;2023-08-01T05:25:33;7.60;;;3.92;;
54795;SDS011;40693;43.884;20.340;2023-08-01T05:27:58;9.07;;;5.15;;
54795;SDS011;40693;43.884;20.340;2023-08-01T05:30:24;7.32;;;4.63;;
54795;SDS011;40693;43.884;20.340;2023-08-01T05:32:50;6.22;;;4.05;;
54795;SDS011;40693;43.884;20.340;2023-08-01T05:35:16;7.40;;;4.68;;
54795;SDS011;40693;43.884;20.340;2023-08-01T05:37:42;8.27;;;3.58;;
54795;SDS011;40693;43.884;20.340;2023-08-01T05:40:08;5.78;;;3.60;;
54795;SDS011;40693;43.884;20.340;2023-08-01T05:42:34;6.00;;;3.53;;
54795;SDS011;40693;43.884;20.340;2023-08-01T05:45:00;6.38;;;3.47;;
54795;SDS011;40693;43.884;20.340;2023-08-01T05:47:26;5.97;;;3.88;;
54795;SDS011;40693;43.884;20.340;2023-08-01T05:49:52;6.63;;;4.15;;
54795;SDS011;40693;43.884;20.340;2023-08-01T05:52:17;6.45;;;4.07;;
54795;SDS011;40693;43.884;20.340;2023-08-01T05:54:43;6.40;;;4.15;;
54795;SDS011;40693;43.884;20.340;2023-08-01T05:57:09;7.70;;;4.80;;
54795;SDS011;40693;43.884;20.340;2023-08-01T05:59:35;7.22;;;4.32;;
54795;SDS011;40693;43.884;20.340;2023-08-01T06:02:01;7.10;;;4.70;;
54795;SDS011;40693;43.884;20.340;2023-08-01T06:04:27;11.07;;;4.85;;
54795;SDS011;40693;43.884;20.340;2023-08-01T06:06:53;10.65;;;4.13;;
54795;SDS011;40693;43.884;20.340;2023-08-01T06:09:19;7.57;;;4.88;;
54795;SDS011;40693;43.884;20.340;2023-08-01T06:11:44;8.68;;;3.97;;
54795;SDS011;40693;43.884;20.340;2023-08-01T06:14:10;7.65;;;4.82;;
54795;SDS011;40693;43.884;20.340;2023-08-01T06:16:36;10.13;;;4.57;;
54795;SDS011;40693;43.884;20.340;2023-08-01T06:19:02;7.82;;;5.07;;
54795;SDS011;40693;43.884;20.340;2023-08-01T06:21:28;10.40;;;5.05;;
54795;SDS011;40693;43.884;20.340;2023-08-01T06:23:53;9.73;;;4.90;;
54795;SDS011;40693;43.884;20.340;2023-08-01T06:26:19;8.23;;;4.97;;
54795;SDS011;40693;43.884;20.340;2023-08-01T06:28:45;8.98;;;4.90;;
54795;SDS011;40693;43.884;20.340;2023-08-01T06:31:10;11.63;;;6.32;;
54795;SDS011;40693;43.884;20.340;2023-08-01T06:33:36;12.30;;;7.15;;
54795;SDS011;40693;43.884;20.340;2023-08-01T06:36:02;11.82;;;7.28;;
54795;SDS011;40693;43.884;20.340;2023-08-01T06:38:29;16.00;;;7.20;;
54795;SDS011;40693;43.884;20.340;2023-08-01T06:40:54;11.32;;;7.32;;
54795;SDS011;40693;43.884;20.340;2023-08-01T06:43:20;10.88;;;5.80;;
54795;SDS011;40693;43.884;20.340;2023-08-01T06:45:46;5.97;;;4.50;;
54795;SDS011;40693;43.884;20.340;2023-08-01T06:48:11;6.70;;;4.78;;
54795;SDS011;40693;43.884;20.340;2023-08-01T06:50:37;9.05;;;4.88;;
54795;SDS011;40693;43.884;20.340;2023-08-01T06:53:03;6.53;;;4.30;;
54795;SDS011;40693;43.884;20.340;2023-08-01T06:55:29;9.02;;;4.93;;
54795;SDS011;40693;43.884;20.340;2023-08-01T06:57:55;7.47;;;4.68;;
54795;SDS011;40693;43.884;20.340;2023-08-01T07:00:20;5.60;;;4.38;;
54795;SDS011;40693;43.884;20.340;2023-08-01T07:02:46;12.30;;;4.22;;
54795;SDS011;40693;43.884;20.340;2023-08-01T07:05:12;9.30;;;5.43;;
54795;SDS011;40693;43.884;20.340;2023-08-01T07:07:37;14.25;;;6.95;;
54795;SDS011;40693;43.884;20.340;2023-08-01T07:10:03;9.40;;;5.35;;
54795;SDS011;40693;43.884;20.340;2023-08-01T07:12:29;10.63;;;5.15;;
54795;SDS011;40693;43.884;20.340;2023-08-01T07:14:55;20.23;;;4.55;;
54795;SDS011;40693;43.884;20.340;2023-08-01T07:17:21;9.77;;;4.78;;
54795;SDS011;40693;43.884;20.340;2023-08-01T07:19:46;7.82;;;4.43;;
54795;SDS011;40693;43.884;20.340;2023-08-01T07:22:12;6.25;;;3.75;;
54795;SDS011;40693;43.884;20.340;2023-08-01T07:24:38;10.60;;;5.32;;
54795;SDS011;40693;43.884;20.340;2023-08-01T07:27:04;10.07;;;4.90;;
54795;SDS011;40693;43.884;20.340;2023-08-01T07:29:30;7.70;;;5.10;;
54795;SDS011;40693;43.884;20.340;2023-08-01T07:31:55;9.75;;;4.88;;
54795;SDS011;40693;43.884;20.340;2023-08-01T07:34:21;6.18;;;4.30;;
54795;SDS011;40693;43.884;20.340;2023-08-01T07:36:47;10.85;;;4.85;;
54795;SDS011;40693;43.884;20.340;2023-08-01T07:39:14;10.25;;;5.45;;
54795;SDS011;40693;43.884;20.340;2023-08-01T07:41:40;9.82;;;4.30;;
54795;SDS011;40693;43.884;20.340;2023-08-01T07:44:06;12.52;;;5.03;;
54795;SDS011;40693;43.884;20.340;2023-08-01T07:46:32;6.65;;;5.50;;
54795;SDS011;40693;43.884;20.340;2023-08-01T07:48:58;7.18;;;4.53;;
54795;SDS011;40693;43.884;20.340;2023-08-01T07:51:24;10.90;;;4.53;;
54795;SDS011;40693;43.884;20.340;2023-08-01T07:53:51;7.00;;;4.60;;
54795;SDS011;40693;43.884;20.340;2023-08-01T07:56:18;8.70;;;4.63;;
54795;SDS011;40693;43.884;20.340;2023-08-01T07:58:44;9.63;;;4.57;;
54795;SDS011;40693;43.884;20.340;2023-08-01T08:01:10;9.18;;;5.20;;
54795;SDS011;40693;43.884;20.340;2023-08-01T08:03:36;8.73;;;5.63;;
54795;SDS011;40693;43.884;20.340;2023-08-01T08:06:02;9.45;;;4.93;;
54795;SDS011;40693;43.884;20.340;2023-08-01T08:08:29;10.68;;;5.55;;
54795;SDS011;40693;43.884;20.340;2023-08-01T08:10:55;6.30;;;4.55;;
54795;SDS011;40693;43.884;20.340;2023-08-01T08:13:21;7.03;;;5.05;;
54795;SDS011;40693;43.884;20.340;2023-08-01T08:15:47;9.40;;;5.10;;
54795;SDS011;40693;43.884;20.340;2023-08-01T08:18:13;10.27;;;6.15;;
54795;SDS011;40693;43.884;20.340;2023-08-01T08:20:42;10.05;;;5.00;;
54795;SDS011;40693;43.884;20.340;2023-08-01T08:23:09;7.93;;;5.10;;
54795;SDS011;40693;43.884;20.340;2023-08-01T08:25:35;8.60;;;4.80;;
54795;SDS011;40693;43.884;20.340;2023-08-01T08:28:01;9.68;;;5.07;;
54795;SDS011;40693;43.884;20.340;2023-08-01T08:30:27;8.85;;;5.57;;
54795;SDS011;40693;43.884;20.340;2023-08-01T08:32:52;6.78;;;5.07;;
54795;SDS011;40693;43.884;20.340;2023-08-01T08:35:18;12.10;;;4.85;;
54795;SDS011;40693;43.884;20.340;2023-08-01T08:37:44;8.63;;;4.50;;
54795;SDS011;40693;43.884;20.340;2023-08-01T08:40:10;7.38;;;4.60;;
54795;SDS011;40693;43.884;20.340;2023-08-01T08:42:38;6.22;;;4.55;;
54795;SDS011;40693;43.884;20.340;2023-08-01T08:45:05;6.47;;;4.32;;
54795;SDS011;40693;43.884;20.340;2023-08-01T08:47:32;6.82;;;4.82;;
54795;SDS011;40693;43.884;20.340;2023-08-01T08:50:03;7.95;;;4.57;;
54795;SDS011;40693;43.884;20.340;2023-08-01T08:52:31;6.80;;;5.15;;
54795;SDS011;40693;43.884;20.340;2023-08-01T08:54:56;7.22;;;6.13;;
54795;SDS011;40693;43.884;20.340;2023-08-01T08:57:23;7.28;;;5.53;;
54795;SDS011;40693;43.884;20.340;2023-08-01T08:59:49;10.45;;;5.60;;
54795;SDS011;40693;43.884;20.340;2023-08-01T09:02:16;9.30;;;7.10;;
54795;SDS011;40693;43.884;20.340;2023-08-01T09:04:42;13.90;;;7.82;;
54795;SDS011;40693;43.884;20.340;2023-08-01T09:07:09;14.65;;;9.18;;
54795;SDS011;40693;43.884;20.340;2023-08-01T09:09:36;10.13;;;6.57;;
54795;SDS011;40693;43.884;20.340;2023-08-01T09:12:02;10.43;;;7.20;;
54795;SDS011;40693;43.884;20.340;2023-08-01T09:14:28;9.82;;;5.90;;
54795;SDS011;40693;43.884;20.340;2023-08-01T09:16:54;7.55;;;5.15;;
54795;SDS011;40693;43.884;20.340;2023-08-01T09:19:23;7.60;;;4.78;;
54795;SDS011;40693;43.884;20.340;2023-08-01T09:21:50;8.40;;;4.68;;
54795;SDS011;40693;43.884;20.340;2023-08-01T09:24:17;5.65;;;4.60;;
54795;SDS011;40693;43.884;20.340;2023-08-01T09:26:47;5.00;;;3.85;;
54795;SDS011;40693;43.884;20.340;2023-08-01T09:29:17;7.45;;;4.97;;
54795;SDS011;40693;43.884;20.340;2023-08-01T09:31:44;8.82;;;4.28;;
54795;SDS011;40693;43.884;20.340;2023-08-01T09:34:20;5.88;;;3.90;;
54795;SDS011;40693;43.884;20.340;2023-08-01T09:36:47;9.57;;;5.00;;
54795;SDS011;40693;43.884;20.340;2023-08-01T09:39:17;7.10;;;4.55;;
54795;SDS011;40693;43.884;20.340;2023-08-01T09:41:44;9.27;;;5.05;;
54795;SDS011;40693;43.884;20.340;2023-08-01T09:44:11;7.47;;;4.50;;
54795;SDS011;40693;43.884;20.340;2023-08-01T09:46:42;5.60;;;3.95;;
54795;SDS011;40693;43.884;20.340;2023-08-01T09:49:09;7.88;;;4.38;;
54795;SDS011;40693;43.884;20.340;2023-08-01T09:51:48;7.35;;;4.20;;
54795;SDS011;40693;43.884;20.340;2023-08-01T09:54:15;9.27;;;5.25;;
54795;SDS011;40693;43.884;20.340;2023-08-01T09:56:44;8.52;;;5.07;;
54795;SDS011;40693;43.884;20.340;2023-08-01T09:59:10;7.10;;;4.45;;
54795;SDS011;40693;43.884;20.340;2023-08-01T10:01:36;8.63;;;4.68;;
54795;SDS011;40693;43.884;20.340;2023-08-01T10:04:04;5.45;;;3.13;;
54795;SDS011;40693;43.884;20.340;2023-08-01T10:06:33;4.95;;;3.60;;
54795;SDS011;40693;43.884;20.340;2023-08-01T10:09:06;6.90;;;4.13;;
54795;SDS011;40693;43.884;20.340;2023-08-01T10:11:36;9.77;;;4.35;;
54795;SDS011;40693;43.884;20.340;2023-08-01T10:14:05;5.40;;;3.78;;
54795;SDS011;40693;43.884;20.340;2023-08-01T10:16:31;7.25;;;4.07;;
54795;SDS011;40693;43.884;20.340;2023-08-01T10:18:59;7.05;;;3.88;;
54795;SDS011;40693;43.884;20.340;2023-08-01T10:21:26;7.13;;;4.68;;
54795;SDS011;40693;43.884;20.340;2023-08-01T10:23:52;5.07;;;3.55;;
54795;SDS011;40693;43.884;20.340;2023-08-01T10:26:19;5.43;;;3.85;;
54795;SDS011;40693;43.884;20.340;2023-08-01T10:28:52;7.22;;;3.60;;
54795;SDS011;40693;43.884;20.340;2023-08-01T10:31:18;4.57;;;3.15;;
54795;SDS011;40693;43.884;20.340;2023-08-01T10:33:46;5.28;;;2.67;;
54795;SDS011;40693;43.884;20.340;2023-08-01T10:38:46;4.43;;;3.08;;
54795;SDS011;40693;43.884;20.340;2023-08-01T10:41:34;6.10;;;3.85;;
54795;SDS011;40693;43.884;20.340;2023-08-01T10:44:33;3.88;;;2.88;;
54795;SDS011;40693;43.884;20.340;2023-08-01T10:47:03;4.43;;;3.60;;
54795;SDS011;40693;43.884;20.340;2023-08-01T10:49:36;6.57;;;3.13;;
54795;SDS011;40693;43.884;20.340;2023-08-01T10:52:17;5.00;;;2.92;;
54795;SDS011;40693;43.884;20.340;2023-08-01T10:54:45;5.10;;;2.80;;
54795;SDS011;40693;43.884;20.340;2023-08-01T10:57:17;3.95;;;3.17;;
54795;SDS011;40693;43.884;20.340;2023-08-01T10:59:43;4.95;;;3.28;;
54795;SDS011;40693;43.884;20.340;2023-08-01T11:02:10;4.28;;;3.35;;
54795;SDS011;40693;43.884;20.340;2023-08-01T11:04:36;4.70;;;3.17;;
54795;SDS011;40693;43.884;20.340;2023-08-01T11:07:01;5.47;;;3.75;;
54795;SDS011;40693;43.884;20.340;2023-08-01T11:09:29;10.00;;;3.78;;
54795;SDS011;40693;43.884;20.340;2023-08-01T11:11:56;5.25;;;3.60;;
54795;SDS011;40693;43.884;20.340;2023-08-01T11:14:24;7.22;;;3.55;;
54795;SDS011;40693;43.884;20.340;2023-08-01T11:16:50;4.22;;;3.83;;
54795;SDS011;40693;43.884;20.340;2023-08-01T11:19:29;4.07;;;3.03;;
54795;SDS011;40693;43.884;20.340;2023-08-01T11:21:55;6.15;;;3.72;;
54795;SDS011;40693;43.884;20.340;2023-08-01T11:24:22;6.60;;;3.75;;
54795;SDS011;40693;43.884;20.340;2023-08-01T11:26:49;6.90;;;3.40;;
54795;SDS011;40693;43.884;20.340;2023-08-01T11:29:16;5.43;;;3.65;;
54795;SDS011;40693;43.884;20.340;2023-08-01T11:31:52;4.30;;;3.47;;
54795;SDS011;40693;43.884;20.340;2023-08-01T11:34:18;6.95;;;3.53;;
54795;SDS011;40693;43.884;20.340;2023-08-01T11:36:44;5.70;;;3.30;;
54795;SDS011;40693;43.884;20.340;2023-08-01T11:39:11;5.60;;;3.17;;
54795;SDS011;40693;43.884;20.340;2023-08-01T11:41:37;3.42;;;3.10;;
54795;SDS011;40693;43.884;20.340;2023-08-01T11:44:04;7.35;;;4.25;;
54795;SDS011;40693;43.884;20.340;2023-08-01T11:46:36;5.22;;;3.92;;
54795;SDS011;40693;43.884;20.340;2023-08-01T11:49:03;4.47;;;3.30;;
54795;SDS011;40693;43.884;20.340;2023-08-01T11:51:30;5.07;;;3.38;;
54795;SDS011;40693;43.884;20.340;2023-08-01T11:54:08;5.28;;;3.53;;
54795;SDS011;40693;43.884;20.340;2023-08-01T11:56:36;3.75;;;3.10;;
54795;SDS011;40693;43.884;20.340;2023-08-01T12:01:41;5.35;;;3.40;;
54795;SDS011;40693;43.884;20.340;2023-08-01T12:04:07;7.88;;;3.15;;
54795;SDS011;40693;43.884;20.340;2023-08-01T12:06:34;7.82;;;3.78;;
54795;SDS011;40693;43.884;20.340;2023-08-01T12:09:12;4.55;;;3.22;;
54795;SDS011;40693;43.884;20.340;2023-08-01T12:11:39;4.22;;;3.22;;
54795;SDS011;40693;43.884;20.340;2023-08-01T12:16:35;4.72;;;3.35;;
54795;SDS011;40693;43.884;20.340;2023-08-01T12:19:04;4.97;;;3.70;;
54795;SDS011;40693;43.884;20.340;2023-08-01T12:21:31;5.75;;;3.60;;
54795;SDS011;40693;43.884;20.340;2023-08-01T12:23:57;7.60;;;3.47;;
54795;SDS011;40693;43.884;20.340;2023-08-01T12:26:23;5.57;;;3.47;;
54795;SDS011;40693;43.884;20.340;2023-08-01T12:28:49;4.13;;;3.47;;
54795;SDS011;40693;43.884;20.340;2023-08-01T12:31:16;5.28;;;3.33;;
54795;SDS011;40693;43.884;20.340;2023-08-01T12:33:43;4.80;;;3.72;;
54795;SDS011;40693;43.884;20.340;2023-08-01T12:36:09;5.65;;;3.35;;
54795;SDS011;40693;43.884;20.340;2023-08-01T12:38:35;6.68;;;3.65;;
54795;SDS011;40693;43.884;20.340;2023-08-01T12:41:00;12.93;;;3.92;;
54795;SDS011;40693;43.884;20.340;2023-08-01T12:43:26;5.10;;;3.38;;
54795;SDS011;40693;43.884;20.340;2023-08-01T12:45:52;5.10;;;3.50;;
54795;SDS011;40693;43.884;20.340;2023-08-01T12:48:18;5.13;;;3.83;;
54795;SDS011;40693;43.884;20.340;2023-08-01T12:50:44;6.35;;;3.67;;
54795;SDS011;40693;43.884;20.340;2023-08-01T12:53:11;4.72;;;3.40;;
54795;SDS011;40693;43.884;20.340;2023-08-01T12:55:37;6.30;;;3.80;;
54795;SDS011;40693;43.884;20.340;2023-08-01T12:58:03;6.47;;;3.38;;
54795;SDS011;40693;43.884;20.340;2023-08-01T13:00:29;6.82;;;3.67;;
54795;SDS011;40693;43.884;20.340;2023-08-01T13:02:55;7.13;;;4.50;;
54795;SDS011;40693;43.884;20.340;2023-08-01T13:05:21;7.47;;;3.97;;
54795;SDS011;40693;43.884;20.340;2023-08-01T13:07:47;4.75;;;3.58;;
54795;SDS011;40693;43.884;20.340;2023-08-01T13:10:14;4.35;;;3.28;;
54795;SDS011;40693;43.884;20.340;2023-08-01T13:12:40;6.47;;;3.90;;
54795;SDS011;40693;43.884;20.340;2023-08-01T13:15:07;7.63;;;3.45;;
54795;SDS011;40693;43.884;20.340;2023-08-01T13:17:36;4.80;;;3.13;;
54795;SDS011;40693;43.884;20.340;2023-08-01T13:20:03;6.63;;;3.15;;
54795;SDS011;40693;43.884;20.340;2023-08-01T13:22:38;4.47;;;3.10;;
54795;SDS011;40693;43.884;20.340;2023-08-01T13:25:04;4.30;;;3.10;;
54795;SDS011;40693;43.884;20.340;2023-08-01T13:27:31;6.65;;;3.30;;
54795;SDS011;40693;43.884;20.340;2023-08-01T13:29:59;6.40;;;3.90;;
54795;SDS011;40693;43.884;20.340;2023-08-01T13:32:24;5.43;;;3.22;;
54795;SDS011;40693;43.884;20.340;2023-08-01T13:34:50;5.40;;;3.33;;
54795;SDS011;40693;43.884;20.340;2023-08-01T13:37:16;7.07;;;3.50;;
54795;SDS011;40693;43.884;20.340;2023-08-01T13:39:42;6.18;;;3.60;;
54795;SDS011;40693;43.884;20.340;2023-08-01T13:42:10;10.05;;;4.25;;
54795;SDS011;40693;43.884;20.340;2023-08-01T13:44:36;6.85;;;4.28;;
54795;SDS011;40693;43.884;20.340;2023-08-01T13:47:02;7.30;;;4.47;;
54795;SDS011;40693;43.884;20.340;2023-08-01T13:49:29;4.53;;;3.35;;
54795;SDS011;40693;43.884;20.340;2023-08-01T13:51:54;24.83;;;6.00;;
54795;SDS011;40693;43.884;20.340;2023-08-01T13:54:20;27.63;;;6.78;;
54795;SDS011;40693;43.884;20.340;2023-08-01T13:56:46;11.68;;;4.32;;
54795;SDS011;40693;43.884;20.340;2023-08-01T13:59:11;7.72;;;4.30;;
54795;SDS011;40693;43.884;20.340;2023-08-01T14:01:37;80.15;;;16.98;;
54795;SDS011;40693;43.884;20.340;2023-08-01T14:04:03;40.13;;;7.30;;
54795;SDS011;40693;43.884;20.340;2023-08-01T14:06:29;5.32;;;3.45;;
54795;SDS011;40693;43.884;20.340;2023-08-01T14:08:55;7.47;;;4.30;;
54795;SDS011;40693;43.884;20.340;2023-08-01T14:11:21;11.70;;;3.30;;
54795;SDS011;40693;43.884;20.340;2023-08-01T14:13:46;7.93;;;4.20;;
54795;SDS011;40693;43.884;20.340;2023-08-01T14:16:12;9.05;;;4.03;;
54795;SDS011;40693;43.884;20.340;2023-08-01T14:18:38;6.35;;;3.83;;
54795;SDS011;40693;43.884;20.340;2023-08-01T14:21:04;5.15;;;3.40;;
54795;SDS011;40693;43.884;20.340;2023-08-01T14:23:30;5.50;;;3.45;;
54795;SDS011;40693;43.884;20.340;2023-08-01T14:25:57;8.05;;;3.92;;
54795;SDS011;40693;43.884;20.340;2023-08-01T14:28:23;6.40;;;3.28;;
54795;SDS011;40693;43.884;20.340;2023-08-01T14:30:48;4.38;;;3.30;;
54795;SDS011;40693;43.884;20.340;2023-08-01T14:33:14;6.93;;;3.47;;
54795;SDS011;40693;43.884;20.340;2023-08-01T14:35:40;5.93;;;4.25;;
54795;SDS011;40693;43.884;20.340;2023-08-01T14:38:07;11.82;;;4.25;;